Bookmark and Share
Track history (hours):
 

Olivia Sylvie

Last reported at 2014-Apr-20 09:33 UTC. Time now 2014-Apr-21 10:13 UTC.
Position N 43°24' E 004°60'.

Length 23 m.

Type: Fishing. MMSI: 228236800.

NotesDate/timePositionNaut miles runAvg speedWind from/ knotsBaromVisibWave heightAir tempDewpointWater temp
2014-Apr-20 09:33N 43°24' E 004°60'0 0.0
2014-Apr-20 08:33N 43°24' E 004°60'0 0.0
2014-Apr-20 07:33N 43°24' E 004°60'0 0.0
2014-Apr-19 16:31N 43°24' E 004°60'0 0.0
2014-Apr-19 15:33N 43°24' E 004°60'0 0.0
2014-Apr-19 14:33N 43°24' E 004°60'0 0.0
2014-Apr-19 13:33N 43°24' E 004°60'0 0.0
2014-Apr-19 09:33N 43°24' E 004°60'0 0.0
2014-Apr-19 08:33N 43°24' E 004°60'0 0.0
2014-Apr-19 07:33N 43°24' E 004°60'0 0.0
2014-Apr-19 06:34N 43°24' E 004°60'0 0.0
2014-Apr-18 10:05N 43°24' E 004°60'0 0.0
2014-Apr-18 09:34N 43°24' E 004°60'0 0.0
2014-Apr-18 08:34N 43°24' E 004°60'0 0.0
2014-Apr-18 07:33N 43°24' E 004°60'0 0.0
2014-Apr-18 06:34N 43°24' E 004°60'0 0.0
2014-Apr-18 05:34N 43°24' E 004°60'0 0.0
2014-Apr-18 04:33N 43°24' E 004°60'0 0.0
2014-Apr-18 03:33N 43°24' E 004°60'0 0.0
2014-Apr-18 02:33N 43°24' E 004°60'0 0.0
2014-Apr-18 01:34N 43°24' E 004°60'0 0.0
2014-Apr-18 00:34N 43°24' E 004°60'0 0.0
2014-Apr-17 23:34N 43°24' E 004°60'0 0.0
2014-Apr-17 22:34N 43°24' E 004°60'0 0.0
2014-Apr-17 21:33N 43°24' E 004°60'0 0.0
2014-Apr-17 20:34N 43°24' E 004°60'0 0.0
2014-Apr-17 19:34N 43°24' E 004°60'0 0.0
2014-Apr-17 18:34N 43°24' E 004°60'0 0.0
2014-Apr-17 17:34N 43°24' E 004°60'0 0.0
2014-Apr-17 16:33N 43°24' E 004°60'0 0.0
2014-Apr-17 15:34N 43°24' E 004°60'0 0.0
2014-Apr-17 14:34N 43°24' E 004°60'8 7.8
2014-Apr-17 13:34N 43°17' E 005°04'3 3.0
2014-Apr-17 12:33N 43°14' E 005°04'3 3.4
2014-Apr-17 11:34N 43°11' E 005°06'2 0.5
2014-Apr-17 07:32N 43°13' E 005°05'7 1.8
2014-Apr-17 03:30N 43°15' E 004°55'5 5.2
2014-Apr-17 02:34N 43°20' E 004°57'5 0.4
2014-Apr-16 16:32N 43°24' E 004°60'0 0.0
2014-Apr-16 15:33N 43°24' E 004°60'0 0.0
2014-Apr-16 14:33N 43°24' E 004°60'4 4.0
2014-Apr-16 13:33N 43°20' E 004°58'4 4.4
2014-Apr-16 12:33N 43°16' E 004°57'4 3.2
2014-Apr-16 11:26N 43°13' E 004°57'7 3.5
2014-Apr-16 09:24N 43°11' E 005°06'5 2.8
2014-Apr-16 07:28N 43°10' E 004°59'5 3.8
2014-Apr-16 06:04N 43°10' E 004°52'5 3.1
2014-Apr-16 04:33N 43°14' E 004°50'4 3.9
2014-Apr-16 03:32N 43°17' E 004°54'6 6.2
2014-Apr-16 02:33N 43°22' E 004°58'2 0.1
2014-Apr-14 15:34N 43°24' E 004°60'0 0.0
2014-Apr-14 14:34N 43°24' E 004°60'0 0.4
2014-Apr-14 13:34N 43°24' E 004°59'9 4.7
2014-Apr-14 11:34N 43°15' E 004°55'  
2014-Apr-11 16:34N 43°24' E 004°60'0 0.0
2014-Apr-11 15:33N 43°24' E 004°60'0 0.0
2014-Apr-11 14:33N 43°24' E 004°60'2 1.6
2014-Apr-11 13:33N 43°23' E 004°59'5 5.5
2014-Apr-11 12:34N 43°18' E 004°56'7 3.3
2014-Apr-11 10:30N 43°12' E 005°01'4 3.7
2014-Apr-11 09:32N 43°13' E 005°06'5 2.5
2014-Apr-11 07:28N 43°10' E 004°60'4 4.0
2014-Apr-11 06:27N 43°10' E 004°54'3 3.7
2014-Apr-11 05:32N 43°10' E 004°50'3 3.4
2014-Apr-11 04:31N 43°14' E 004°49'4 3.8
2014-Apr-11 03:32N 43°16' E 004°53'5 5.0
2014-Apr-11 02:34N 43°20' E 004°57'4 0.4
2014-Apr-10 14:33N 43°24' E 004°60'0 0.0
2014-Apr-10 13:33N 43°24' E 004°60'6 6.3
2014-Apr-10 12:33N 43°18' E 005°00'3 2.8
2014-Apr-10 11:33N 43°16' E 004°58'4 3.8
2014-Apr-10 10:33N 43°15' E 004°53'  

Dump ship's entire track history

sailing weather and tide predictions

Olivia Sylvie — FMIF — position and weather